createdAt,value
2018-12-20T00:00:44.434Z,87.27
2018-12-20T00:03:14.626Z,87.07
2018-12-20T00:05:44.988Z,87.94
2018-12-20T00:08:15.192Z,87.67
2018-12-20T00:10:45.373Z,86.95
2018-12-20T00:13:15.619Z,86.41
2018-12-20T00:15:45.840Z,86.28
2018-12-20T00:18:16.072Z,87.68
2018-12-20T00:20:46.417Z,86.88
2018-12-20T00:23:16.750Z,87.37
2018-12-20T00:25:46.964Z,86.06
2018-12-20T00:28:17.400Z,86.90
2018-12-20T00:30:47.680Z,87.11
2018-12-20T00:33:17.887Z,86.84
2018-12-20T00:35:48.046Z,86.86
2018-12-20T00:38:18.292Z,86.10
2018-12-20T00:40:48.607Z,86.92
2018-12-20T00:43:18.733Z,86.84
2018-12-20T00:45:48.999Z,86.41
2018-12-20T00:48:19.183Z,87.00
2018-12-20T00:50:49.378Z,86.66
2018-12-20T00:53:19.579Z,87.37
2018-12-20T00:55:49.749Z,86.13
2018-12-20T00:58:19.991Z,87.12
2018-12-20T01:00:50.205Z,86.55
2018-12-20T01:03:20.560Z,87.37
2018-12-20T01:05:50.840Z,87.00
2018-12-20T01:08:21.031Z,87.85
2018-12-20T01:10:51.296Z,87.54
2018-12-20T01:13:28.134Z,87.88
2018-12-20T01:15:58.353Z,87.67
2018-12-20T01:18:28.490Z,87.46
2018-12-20T01:21:00.217Z,88.58
2018-12-20T01:23:30.366Z,88.50
2018-12-20T01:26:00.586Z,88.20
2018-12-20T01:28:30.883Z,88.10
2018-12-20T01:31:01.135Z,88.08
2018-12-20T01:33:31.300Z,88.69
2018-12-20T01:36:01.584Z,87.39
2018-12-20T01:38:32.017Z,88.16
2018-12-20T01:41:02.433Z,88.90
2018-12-20T01:43:32.866Z,88.01
2018-12-20T01:46:03.137Z,88.95
2018-12-20T01:48:33.551Z,90.02
2018-12-20T01:51:04.173Z,89.31
2018-12-20T01:53:34.316Z,89.46
2018-12-20T01:56:04.706Z,89.27
2018-12-20T01:58:34.966Z,89.44
2018-12-20T02:01:05.109Z,88.70
2018-12-20T02:03:35.240Z,90.67
2018-12-20T02:06:05.552Z,90.49
2018-12-20T02:08:35.886Z,90.08
2018-12-20T02:11:06.257Z,90.05
2018-12-20T02:13:36.405Z,89.31
2018-12-20T02:16:06.680Z,89.81
2018-12-20T02:18:37.681Z,90.01
2018-12-20T02:21:08.374Z,89.90
2018-12-20T02:23:38.615Z,90.35
2018-12-20T02:26:09.088Z,88.80
2018-12-20T02:28:39.452Z,90.76
2018-12-20T02:31:09.729Z,90.23
2018-12-20T02:33:39.928Z,89.45
2018-12-20T02:36:10.283Z,89.56
2018-12-20T02:38:40.479Z,89.69
2018-12-20T02:41:10.661Z,90.05
2018-12-20T02:43:40.880Z,91.07
2018-12-20T02:46:11.218Z,90.96
2018-12-20T02:48:41.583Z,90.63
2018-12-20T02:51:11.907Z,89.55
2018-12-20T02:53:42.145Z,90.30
2018-12-20T02:56:12.325Z,89.40
2018-12-20T02:58:42.579Z,89.45
2018-12-20T03:01:12.939Z,90.10
2018-12-20T03:03:43.165Z,90.23
2018-12-20T03:06:13.624Z,90.28
2018-12-20T03:08:44.010Z,91.22
2018-12-20T03:11:14.350Z,91.58
2018-12-20T03:13:44.526Z,90.92
2018-12-20T03:16:15.422Z,90.25
2018-12-20T03:18:45.667Z,90.95
2018-12-20T03:21:16.249Z,90.29
2018-12-20T03:23:46.553Z,89.87
2018-12-20T03:26:17.024Z,91.54
2018-12-20T03:28:47.372Z,90.16
2018-12-20T03:31:17.693Z,90.84
2018-12-20T03:33:54.324Z,90.55
2018-12-20T03:36:24.786Z,90.87
2018-12-20T03:38:55.312Z,91.12
2018-12-20T03:41:25.563Z,90.03
2018-12-20T03:43:55.800Z,90.59
2018-12-20T03:46:26.341Z,90.62
2018-12-20T03:48:56.706Z,90.11
2018-12-20T03:51:27.121Z,90.34
2018-12-20T03:53:57.315Z,91.08
2018-12-20T03:56:27.459Z,90.10
2018-12-20T03:58:57.808Z,91.00
2018-12-20T04:01:28.127Z,90.36
2018-12-20T04:03:58.434Z,90.89
2018-12-20T04:06:28.923Z,90.38
2018-12-20T04:08:59.179Z,91.30
2018-12-20T04:11:29.866Z,91.78
2018-12-20T04:14:00.064Z,91.71
2018-12-20T04:16:30.701Z,91.55
2018-12-20T04:19:01.071Z,90.95
2018-12-20T04:21:31.554Z,90.51
2018-12-20T04:24:01.750Z,91.39
2018-12-20T04:26:32.110Z,91.19
2018-12-20T04:29:02.323Z,91.11
2018-12-20T04:31:32.822Z,91.28
2018-12-20T04:34:03.095Z,90.20
2018-12-20T04:36:33.320Z,91.07
2018-12-20T04:39:04.740Z,92.37
2018-12-20T04:41:35.196Z,91.30
2018-12-20T04:44:05.604Z,91.25
2018-12-20T04:46:35.903Z,91.32
2018-12-20T04:49:06.240Z,91.13
2018-12-20T04:51:36.727Z,90.57
2018-12-20T04:54:06.907Z,91.09
2018-12-20T04:56:37.320Z,90.25
2018-12-20T04:59:07.839Z,89.68
2018-12-20T05:01:38.120Z,89.72
2018-12-20T05:04:08.478Z,90.79
2018-12-20T05:06:39.012Z,91.46
2018-12-20T05:09:09.207Z,91.12
2018-12-20T05:11:39.542Z,90.33
2018-12-20T05:14:09.947Z,90.97
2018-12-20T05:16:40.515Z,90.14
2018-12-20T05:19:10.911Z,90.06
2018-12-20T05:21:41.229Z,90.46
2018-12-20T05:24:12.654Z,89.99
2018-12-20T05:26:42.984Z,89.67
2018-12-20T05:29:13.226Z,89.62
2018-12-20T05:31:43.509Z,90.25
2018-12-20T05:34:13.690Z,90.40
2018-12-20T05:36:43.959Z,89.95
2018-12-20T05:39:15.587Z,89.92
2018-12-20T05:41:45.775Z,89.43
2018-12-20T05:44:16.041Z,89.35
2018-12-20T05:46:46.350Z,89.33
2018-12-20T05:49:16.552Z,89.13
2018-12-20T05:51:46.798Z,89.41
2018-12-20T05:54:17.306Z,88.05
2018-12-20T05:56:47.584Z,88.15
2018-12-20T05:59:17.694Z,88.12
2018-12-20T06:01:49.227Z,89.30
2018-12-20T06:04:19.458Z,88.64
2018-12-20T06:06:49.646Z,88.24
2018-12-20T06:09:19.843Z,88.46
2018-12-20T06:11:50.129Z,88.76
2018-12-20T06:14:20.290Z,88.63
2018-12-20T06:16:50.460Z,87.43
2018-12-20T06:19:20.957Z,87.80
2018-12-20T06:21:51.345Z,87.36
2018-12-20T06:24:21.634Z,89.48
2018-12-20T06:26:51.880Z,87.99
2018-12-20T06:29:22.030Z,87.20
2018-12-20T06:31:52.200Z,87.62
2018-12-20T06:34:22.352Z,88.02
2018-12-20T06:36:52.508Z,87.15
2018-12-20T06:39:23.845Z,86.50
2018-12-20T06:41:54.800Z,87.39
2018-12-20T06:44:24.995Z,87.20
2018-12-20T06:46:55.236Z,87.52
2018-12-20T06:49:26.040Z,86.42
2018-12-20T06:51:56.214Z,87.20
2018-12-20T06:54:26.419Z,85.79
2018-12-20T06:56:56.694Z,86.83
2018-12-20T06:59:26.852Z,87.53
2018-12-20T07:01:57.156Z,86.33
2018-12-20T07:04:27.313Z,87.64
2018-12-20T07:06:57.573Z,87.75
2018-12-20T07:09:27.981Z,88.22
2018-12-20T07:11:58.141Z,87.74
2018-12-20T07:14:28.281Z,87.96
2018-12-20T07:16:58.430Z,88.10
2018-12-20T07:19:28.597Z,88.81
2018-12-20T07:21:58.802Z,87.96
2018-12-20T07:24:29.030Z,87.21
2018-12-20T07:26:59.321Z,86.49
2018-12-20T07:29:29.562Z,85.26
2018-12-20T07:31:59.717Z,86.06
2018-12-20T07:34:29.903Z,84.14
2018-12-20T07:37:00.067Z,85.52
2018-12-20T07:39:31.999Z,85.39
2018-12-20T07:42:02.319Z,83.93
2018-12-20T07:44:32.445Z,84.55
2018-12-20T07:47:03.772Z,84.88
2018-12-20T07:49:33.887Z,83.60
2018-12-20T07:52:04.124Z,84.27
2018-12-20T07:54:34.255Z,86.20
2018-12-20T07:57:04.591Z,85.04
2018-12-20T07:59:34.979Z,85.30
2018-12-20T08:02:05.625Z,84.84
2018-12-20T08:04:36.023Z,84.87
2018-12-20T08:07:06.267Z,85.62
2018-12-20T08:09:36.444Z,85.46
2018-12-20T08:12:06.737Z,86.16
2018-12-20T08:14:36.976Z,85.20
2018-12-20T08:17:07.249Z,85.50
2018-12-20T08:19:37.466Z,85.98
2018-12-20T08:22:07.667Z,86.22
2018-12-20T08:24:37.839Z,84.83
2018-12-20T08:27:08.012Z,83.52
2018-12-20T08:29:38.206Z,82.49
2018-12-20T08:32:08.381Z,83.41
2018-12-20T08:34:38.514Z,83.82
2018-12-20T08:37:08.740Z,83.37
2018-12-20T08:39:38.897Z,83.04
2018-12-20T08:42:09.070Z,77.56
2018-12-20T08:44:39.297Z,79.89
2018-12-20T08:47:09.477Z,81.23
2018-12-20T08:49:39.712Z,81.83
2018-12-20T08:52:09.904Z,81.51
2018-12-20T08:54:40.114Z,82.05
2018-12-20T08:57:10.305Z,83.06
2018-12-20T08:59:40.470Z,81.46
2018-12-20T09:02:10.656Z,82.49
2018-12-20T09:04:40.827Z,81.98
2018-12-20T09:07:11.101Z,81.67
2018-12-20T09:09:41.316Z,81.07
2018-12-20T09:12:11.500Z,80.99
2018-12-20T09:14:41.660Z,79.31
2018-12-20T09:17:11.844Z,78.92
2018-12-20T09:19:43.031Z,79.80
2018-12-20T09:22:13.242Z,79.60
2018-12-20T09:24:43.444Z,74.88
2018-12-20T09:27:13.653Z,71.46
2018-12-20T09:29:43.978Z,74.13
2018-12-20T09:32:14.221Z,72.53
2018-12-20T09:34:44.357Z,72.08
2018-12-20T09:37:14.602Z,71.24
2018-12-20T09:39:44.780Z,74.70
2018-12-20T09:42:15.326Z,74.28
2018-12-20T09:44:45.649Z,75.81
2018-12-20T09:47:20.814Z,75.52
2018-12-20T09:49:51.039Z,73.23
2018-12-20T09:52:21.202Z,74.81
2018-12-20T09:54:51.468Z,74.10
2018-12-20T09:57:21.746Z,73.52
2018-12-20T09:59:53.045Z,72.64
2018-12-20T10:02:23.184Z,72.70
2018-12-20T10:04:53.515Z,70.48
2018-12-20T10:07:23.798Z,72.97
2018-12-20T10:09:54.037Z,72.20
2018-12-20T10:12:24.209Z,70.43
2018-12-20T10:14:54.522Z,71.68
2018-12-20T10:17:24.708Z,70.85
2018-12-20T10:19:55.020Z,71.60
2018-12-20T10:22:25.213Z,70.26
2018-12-20T10:24:56.500Z,70.51
2018-12-20T10:27:31.331Z,71.89
2018-12-20T10:29:58.751Z,70.75
2018-12-20T10:32:28.951Z,71.15
2018-12-20T10:34:59.293Z,70.96
2018-12-20T10:37:29.645Z,71.66
2018-12-20T10:39:59.831Z,71.10
2018-12-20T10:42:30.190Z,70.97
2018-12-20T10:45:00.638Z,70.92
2018-12-20T10:47:30.929Z,68.90
2018-12-20T10:50:01.242Z,69.98
2018-12-20T10:52:31.636Z,67.87
2018-12-20T10:55:01.845Z,67.39
2018-12-20T10:57:32.116Z,68.72
2018-12-20T11:00:02.328Z,68.25
2018-12-20T11:02:37.819Z,67.78
2018-12-20T11:05:13.447Z,67.49
2018-12-20T11:07:48.942Z,67.39
2018-12-20T11:10:24.255Z,68.15
2018-12-20T11:12:54.561Z,68.12
2018-12-20T11:15:24.863Z,69.06
2018-12-20T11:17:55.176Z,67.81
2018-12-20T11:20:25.700Z,67.63
2018-12-20T11:22:56.064Z,69.48
2018-12-20T11:25:26.302Z,69.26
2018-12-20T11:27:56.465Z,69.99
2018-12-20T11:30:26.635Z,69.01
2018-12-20T11:32:56.861Z,68.78
2018-12-20T11:35:27.835Z,69.55
2018-12-20T11:37:58.141Z,68.50
2018-12-20T11:40:28.357Z,67.83
2018-12-20T11:42:58.554Z,68.36
2018-12-20T11:45:28.869Z,66.12
2018-12-20T11:47:59.103Z,67.46
2018-12-20T11:50:29.969Z,67.13
2018-12-20T11:53:00.203Z,65.43
2018-12-20T11:55:30.522Z,65.47
2018-12-20T11:58:00.772Z,64.60
2018-12-20T12:00:33.041Z,65.68
2018-12-20T12:03:03.245Z,65.91
2018-12-20T12:05:33.708Z,64.58
2018-12-20T12:08:03.906Z,65.96
2018-12-20T12:10:35.047Z,66.16
2018-12-20T12:13:05.300Z,66.26
2018-12-20T12:15:35.480Z,65.80
2018-12-20T12:18:06.906Z,65.06
2018-12-20T12:20:37.287Z,67.45
2018-12-20T12:23:07.485Z,64.83
2018-12-20T12:25:37.667Z,65.95
2018-12-20T12:28:08.055Z,65.09
2018-12-20T12:30:38.167Z,65.02
2018-12-20T12:33:08.413Z,64.26
2018-12-20T12:35:38.571Z,65.16
2018-12-20T12:38:08.788Z,64.65
2018-12-20T12:40:39.657Z,65.80
2018-12-20T12:43:09.890Z,64.62
2018-12-20T12:45:40.214Z,64.56
2018-12-20T12:48:10.447Z,65.25
2018-12-20T12:50:40.660Z,66.30
2018-12-20T12:53:10.831Z,66.91
2018-12-20T12:55:41.805Z,66.03
2018-12-20T12:58:12.009Z,66.62
2018-12-20T13:00:42.248Z,65.47
2018-12-20T13:03:12.577Z,64.83
2018-12-20T13:05:42.721Z,64.69
2018-12-20T13:08:13.003Z,65.38
2018-12-20T13:10:43.197Z,65.54
2018-12-20T13:13:13.671Z,65.56
2018-12-20T13:15:44.901Z,65.22
2018-12-20T13:18:15.282Z,64.29
2018-12-20T13:20:45.466Z,63.95
2018-12-20T13:23:15.738Z,63.77
2018-12-20T13:25:45.996Z,63.11
2018-12-20T13:28:16.139Z,63.27
2018-12-20T13:30:46.321Z,62.95
2018-12-20T13:33:16.617Z,62.22
2018-12-20T13:35:46.811Z,63.28
2018-12-20T13:38:17.071Z,62.91
2018-12-20T13:40:47.271Z,60.76
2018-12-20T13:43:17.462Z,61.32
2018-12-20T13:45:47.658Z,61.47
2018-12-20T13:48:22.149Z,62.56
2018-12-20T13:50:50.204Z,61.52
2018-12-20T13:53:20.475Z,61.27
2018-12-20T13:55:50.710Z,61.47
2018-12-20T13:58:21.045Z,61.26
2018-12-20T14:00:51.378Z,62.74
2018-12-20T14:03:21.551Z,62.11
2018-12-20T14:05:51.754Z,62.31
2018-12-20T14:08:22.002Z,62.19
2018-12-20T14:10:53.232Z,61.44
2018-12-20T14:13:23.397Z,62.99
2018-12-20T14:15:53.591Z,63.16
2018-12-20T14:18:30.893Z,62.27
2018-12-20T14:20:56.734Z,62.57
2018-12-20T14:23:26.998Z,62.27
2018-12-20T14:25:57.294Z,61.85
2018-12-20T14:28:27.512Z,62.10
2018-12-20T14:30:57.818Z,61.46
2018-12-20T14:33:28.012Z,61.46
2018-12-20T14:35:58.176Z,63.00
2018-12-20T14:38:28.356Z,61.81
2018-12-20T14:40:58.655Z,62.35
2018-12-20T14:43:28.944Z,62.56
2018-12-20T14:45:59.087Z,63.09
2018-12-20T14:48:38.967Z,61.13
2018-12-20T14:51:03.875Z,61.35
2018-12-20T14:53:34.274Z,63.22
2018-12-20T14:56:04.472Z,63.02
2018-12-20T14:58:34.838Z,62.55
2018-12-20T15:01:05.153Z,62.59
2018-12-20T15:03:35.334Z,62.56
2018-12-20T15:06:05.563Z,62.91
2018-12-20T15:08:36.867Z,63.52
2018-12-20T15:11:07.036Z,62.61
2018-12-20T15:13:37.467Z,63.83
2018-12-20T15:16:07.772Z,63.01
2018-12-20T15:18:38.166Z,63.06
2018-12-20T15:21:08.426Z,63.10
2018-12-20T15:23:38.994Z,62.84
2018-12-20T15:26:09.612Z,62.13
2018-12-20T15:28:39.784Z,62.84
2018-12-20T15:31:10.045Z,63.68
2018-12-20T15:33:40.331Z,63.96
2018-12-20T15:36:10.645Z,63.66
2018-12-20T15:38:41.012Z,64.75
2018-12-20T15:41:11.273Z,64.42
2018-12-20T15:43:41.511Z,64.64
2018-12-20T15:46:11.684Z,64.58
2018-12-20T15:48:41.954Z,65.61
2018-12-20T15:51:12.151Z,65.25
2018-12-20T15:53:42.376Z,64.59
2018-12-20T15:56:12.715Z,65.08
2018-12-20T15:58:42.988Z,65.11
2018-12-20T16:01:13.284Z,65.46
2018-12-20T16:03:43.570Z,64.96
2018-12-20T16:06:13.832Z,64.86
2018-12-20T16:08:44.010Z,65.17
2018-12-20T16:11:14.347Z,65.07
2018-12-20T16:13:44.596Z,66.00
2018-12-20T16:16:14.843Z,66.36
2018-12-20T16:18:45.076Z,66.54
2018-12-20T16:21:15.227Z,66.17
2018-12-20T16:23:45.378Z,65.54
2018-12-20T16:26:15.634Z,65.61
2018-12-20T16:28:45.908Z,65.54
2018-12-20T16:31:16.299Z,66.29
2018-12-20T16:33:47.157Z,66.23
2018-12-20T16:36:17.415Z,65.34
2018-12-20T16:38:47.677Z,67.55
2018-12-20T16:41:17.842Z,66.61
2018-12-20T16:43:48.075Z,66.16
2018-12-20T16:46:18.238Z,65.83
2018-12-20T16:48:48.453Z,65.46
2018-12-20T16:51:18.776Z,65.55
2018-12-20T16:53:48.983Z,65.79
2018-12-20T16:56:19.287Z,66.26
2018-12-20T16:58:49.447Z,65.26
2018-12-20T17:01:19.619Z,66.58
2018-12-20T17:03:49.969Z,66.93
2018-12-20T17:06:20.404Z,67.34
2018-12-20T17:08:50.713Z,67.14
2018-12-20T17:11:21.138Z,66.38
2018-12-20T17:13:51.359Z,65.85
2018-12-20T17:16:21.567Z,66.09
2018-12-20T17:18:51.744Z,67.45
2018-12-20T17:21:21.903Z,65.47
2018-12-20T17:23:52.142Z,65.90
2018-12-20T17:26:22.295Z,66.90
2018-12-20T17:28:52.542Z,66.26
2018-12-20T17:31:22.916Z,65.68
2018-12-20T17:33:53.061Z,66.20
2018-12-20T17:36:23.299Z,66.49
2018-12-20T17:38:53.619Z,65.43
2018-12-20T17:41:23.827Z,65.83
2018-12-20T17:43:54.091Z,67.25
2018-12-20T17:46:24.284Z,65.24
2018-12-20T17:48:54.555Z,65.77
2018-12-20T17:51:24.869Z,67.18
2018-12-20T17:53:55.256Z,67.45
2018-12-20T17:56:25.444Z,67.03
2018-12-20T17:58:55.783Z,67.52
2018-12-20T18:01:26.043Z,67.17
2018-12-20T18:03:56.312Z,66.91
2018-12-20T18:06:26.470Z,67.38
2018-12-20T18:08:56.624Z,67.57
2018-12-20T18:11:28.352Z,66.86
2018-12-20T18:13:58.596Z,67.55
2018-12-20T18:16:28.858Z,67.55
2018-12-20T18:18:59.242Z,67.59
2018-12-20T18:21:29.558Z,66.42
2018-12-20T18:23:59.791Z,67.33
2018-12-20T18:26:29.946Z,65.85
2018-12-20T18:29:00.175Z,66.91
2018-12-20T18:31:30.360Z,67.91
2018-12-20T18:34:00.541Z,68.87
2018-12-20T18:36:30.789Z,67.57
2018-12-20T18:39:01.034Z,68.17
2018-12-20T18:41:31.878Z,67.38
2018-12-20T18:44:02.141Z,67.08
2018-12-20T18:46:32.282Z,68.10
2018-12-20T18:49:02.599Z,67.41
2018-12-20T18:51:32.794Z,67.74
2018-12-20T18:54:02.978Z,67.60
2018-12-20T18:56:33.278Z,66.46
2018-12-20T18:59:03.752Z,66.87
2018-12-20T19:01:33.999Z,65.90
2018-12-20T19:04:04.285Z,67.07
2018-12-20T19:06:34.600Z,67.10
2018-12-20T19:09:06.613Z,67.52
2018-12-20T19:11:36.769Z,67.29
2018-12-20T19:14:07.042Z,66.66
2018-12-20T19:16:37.207Z,66.39
2018-12-20T19:19:07.449Z,66.13
2018-12-20T19:21:37.928Z,67.28
2018-12-20T19:24:08.410Z,66.28
2018-12-20T19:26:38.610Z,66.98
2018-12-20T19:29:08.843Z,66.69
2018-12-20T19:31:39.019Z,66.97
2018-12-20T19:34:09.269Z,66.78
2018-12-20T19:36:39.417Z,65.68
2018-12-20T19:39:14.525Z,66.42
2018-12-20T19:41:44.691Z,66.79
2018-12-20T19:44:15.986Z,66.08
2018-12-20T19:46:46.189Z,66.63
2018-12-20T19:49:16.448Z,66.56
2018-12-20T19:51:46.652Z,66.08
2018-12-20T19:54:16.942Z,66.22
2018-12-20T19:56:47.167Z,66.45
2018-12-20T19:59:17.393Z,66.65
2018-12-20T20:01:47.531Z,66.77
2018-12-20T20:04:17.867Z,66.93
2018-12-20T20:06:48.220Z,67.18
2018-12-20T20:09:18.369Z,67.08
2018-12-20T20:11:48.522Z,66.88
2018-12-20T20:14:18.781Z,66.45
2018-12-20T20:16:50.840Z,66.91
2018-12-20T20:19:21.251Z,66.50
2018-12-20T20:21:51.430Z,66.95
2018-12-20T20:24:21.676Z,66.96
2018-12-20T20:26:51.881Z,66.77
2018-12-20T20:29:22.235Z,67.18
2018-12-20T20:31:52.378Z,67.12
2018-12-20T20:34:22.533Z,67.06
2018-12-20T20:36:52.749Z,68.05
2018-12-20T20:39:23.147Z,68.09
2018-12-20T20:41:53.293Z,68.09
2018-12-20T20:44:23.466Z,68.32
2018-12-20T20:46:53.623Z,68.71
2018-12-20T20:49:23.865Z,68.46
2018-12-20T20:51:53.997Z,68.67
2018-12-20T20:54:24.246Z,69.55
2018-12-20T20:56:54.384Z,70.21
2018-12-20T20:59:24.682Z,70.55
2018-12-20T21:01:54.883Z,70.05
2018-12-20T21:04:25.860Z,70.19
2018-12-20T21:06:57.043Z,70.37
2018-12-20T21:09:27.315Z,70.54
2018-12-20T21:11:57.574Z,70.33
2018-12-20T21:14:27.838Z,71.18
2018-12-20T21:16:57.965Z,71.13
2018-12-20T21:19:28.174Z,70.59
2018-12-20T21:21:58.322Z,70.72
2018-12-20T21:24:28.491Z,71.52
2018-12-20T21:26:58.635Z,71.83
2018-12-20T21:29:28.774Z,72.17
2018-12-20T21:31:58.970Z,72.14
2018-12-20T21:34:29.124Z,71.91
2018-12-20T21:36:59.506Z,72.00
2018-12-20T21:39:29.744Z,72.23
2018-12-20T21:42:00.006Z,72.74
2018-12-20T21:44:30.726Z,73.10
2018-12-20T21:47:00.920Z,72.60
2018-12-20T21:49:31.106Z,72.60
2018-12-20T21:52:01.668Z,72.68
2018-12-20T21:54:33.104Z,72.37
2018-12-20T21:57:03.420Z,72.63
2018-12-20T21:59:33.624Z,71.34
2018-12-20T22:02:03.794Z,72.06
2018-12-20T22:04:34.120Z,72.51
2018-12-20T22:07:05.507Z,72.25
2018-12-20T22:09:35.717Z,72.77
2018-12-20T22:12:05.867Z,71.77
2018-12-20T22:14:36.119Z,72.58
2018-12-20T22:17:06.305Z,73.37
2018-12-20T22:19:36.488Z,71.98
2018-12-20T22:22:06.730Z,71.74
2018-12-20T22:24:36.892Z,72.50
2018-12-20T22:27:07.124Z,72.47
2018-12-20T22:29:37.260Z,71.58
2018-12-20T22:32:07.395Z,71.81
2018-12-20T22:34:37.592Z,71.83
2018-12-20T22:37:07.766Z,72.36
2018-12-20T22:39:37.956Z,72.12
2018-12-20T22:42:08.118Z,72.06
2018-12-20T22:44:38.282Z,73.57
2018-12-20T22:47:08.466Z,72.62
2018-12-20T22:49:38.661Z,73.14
2018-12-20T22:52:08.806Z,72.96
2018-12-20T22:54:38.993Z,72.90
2018-12-20T22:57:09.238Z,72.82
2018-12-20T22:59:39.534Z,73.15
2018-12-20T23:02:17.908Z,72.79
2018-12-20T23:04:42.001Z,72.83
2018-12-20T23:07:12.114Z,72.20
2018-12-20T23:09:42.336Z,72.09
2018-12-20T23:12:13.142Z,72.50
2018-12-20T23:14:43.366Z,72.92
2018-12-20T23:17:13.714Z,72.71
2018-12-20T23:19:43.914Z,72.79
2018-12-20T23:22:14.160Z,72.06
2018-12-20T23:24:44.381Z,72.09
2018-12-20T23:27:15.572Z,72.19
2018-12-20T23:29:45.768Z,71.82
2018-12-20T23:32:15.924Z,71.41
2018-12-20T23:34:46.068Z,71.26
2018-12-20T23:37:16.188Z,71.96
2018-12-20T23:39:46.362Z,71.34
2018-12-20T23:42:16.549Z,70.78
2018-12-20T23:44:46.727Z,71.62
2018-12-20T23:47:16.886Z,70.67
2018-12-20T23:49:47.109Z,70.45
2018-12-20T23:52:17.246Z,71.66
2018-12-20T23:54:47.390Z,71.28
2018-12-20T23:57:17.587Z,71.42
2018-12-20T23:59:47.769Z,72.24
